Time;durP1;ratioP1;P1;durP2;ratioP2;P2;SDS_P1;SDS_P2;PMS_P1;PMS_P2;Temp;Humidity;BMP_temperature;BMP_pressure;BME280_temperature;BME280_humidity;BME280_pressure;Samples;Min_cycle;Max_cycle;Signal;HPM_P1;HPM_P2
2022/03/04 00:00:54;;;;;;;17.80;12.30;;;;;;;0.64;60.75;96981.36;109841;1250;60497;-61
2022/03/04 00:03:24;;;;;;;20.60;12.70;;;;;;;0.66;60.83;96984.39;109887;1250;60498;-59
2022/03/04 00:05:54;;;;;;;18.60;12.00;;;;;;;0.68;60.67;96983.92;110035;1250;72349;-63
2022/03/04 00:08:24;;;;;;;21.70;13.50;;;;;;;0.71;60.80;96984.85;109825;1250;66674;-63
2022/03/04 00:10:53;;;;;;;20.50;12.80;;;;;;;0.71;60.82;96984.50;109833;1250;69560;-61
2022/03/04 00:13:24;;;;;;;18.20;12.10;;;;;;;0.72;60.68;96990.97;109652;1251;60465;-59
2022/03/04 00:15:53;;;;;;;16.10;11.00;;;;;;;0.72;60.96;96986.36;109760;1250;60503;-60
2022/03/04 00:18:24;;;;;;;17.90;13.00;;;;;;;0.71;60.79;96983.64;109736;1250;71708;-61
2022/03/04 00:20:54;;;;;;;21.80;13.80;;;;;;;0.69;60.80;96978.56;109707;1250;68390;-61
2022/03/04 00:23:24;;;;;;;25.30;15.80;;;;;;;0.67;61.10;96980.05;109749;1250;69413;-60
2022/03/04 00:25:53;;;;;;;23.40;14.10;;;;;;;0.62;61.82;96980.59;109794;1250;60595;-63
2022/03/04 00:28:23;;;;;;;20.00;14.80;;;;;;;0.57;61.30;96983.02;109665;1250;60486;-61
2022/03/04 00:30:54;;;;;;;21.70;15.50;;;;;;;0.54;61.80;96985.21;109754;1250;71883;-62
2022/03/04 00:33:24;;;;;;;19.20;14.30;;;;;;;0.52;61.35;96984.42;109655;1251;68796;-64
2022/03/04 00:35:55;;;;;;;18.80;13.20;;;;;;;0.50;61.65;96980.16;109753;1250;69410;-63
2022/03/04 00:38:24;;;;;;;18.40;12.50;;;;;;;0.50;61.21;96984.29;109798;1250;60440;-64
2022/03/04 00:40:54;;;;;;;20.30;14.20;;;;;;;0.49;61.50;96986.56;109818;1250;60521;-61
2022/03/04 00:43:23;;;;;;;20.90;14.30;;;;;;;0.47;62.44;96986.83;109911;1250;72377;-61
2022/03/04 00:45:53;;;;;;;26.70;18.60;;;;;;;0.43;63.52;96986.30;109877;1250;68537;-59
2022/03/04 00:48:24;;;;;;;20.90;14.80;;;;;;;0.40;63.49;96984.70;109753;1250;69551;-61
2022/03/04 00:50:54;;;;;;;17.00;11.10;;;;;;;0.39;62.76;96984.23;109849;1250;60532;-62
2022/03/04 00:53:23;;;;;;;16.40;13.10;;;;;;;0.40;62.35;96982.13;109793;1250;60891;-65
2022/03/04 00:55:53;;;;;;;21.90;12.40;;;;;;;0.41;61.78;96977.27;109678;1250;70703;-60
2022/03/04 00:58:23;;;;;;;15.70;11.40;;;;;;;0.42;61.53;96976.07;109761;1250;67021;-63
2022/03/04 01:00:53;;;;;;;27.10;17.60;;;;;;;0.43;62.10;96973.27;109853;1250;68705;-62
2022/03/04 01:03:23;;;;;;;22.20;13.50;;;;;;;0.43;62.89;96972.60;109756;1250;60544;-61
2022/03/04 01:05:53;;;;;;;18.40;13.20;;;;;;;0.44;62.47;96971.86;109937;1250;60511;-61
2022/03/04 01:08:23;;;;;;;21.40;14.80;;;;;;;0.45;62.18;96973.17;109588;1250;72240;-63
2022/03/04 01:10:54;;;;;;;22.40;16.50;;;;;;;0.46;62.90;96974.87;109644;1251;68449;-63
2022/03/04 01:13:25;;;;;;;36.20;21.50;;;;;;;0.45;63.73;96975.95;109758;1250;69441;-61
2022/03/04 01:15:55;;;;;;;23.30;14.20;;;;;;;0.40;66.50;96976.48;109805;1250;60545;-61
2022/03/04 01:18:24;;;;;;;28.30;17.90;;;;;;;0.38;64.31;96975.52;109753;1250;60566;-62
2022/03/04 01:20:54;;;;;;;22.90;17.40;;;;;;;0.36;64.10;96973.19;109854;1250;72517;-59
2022/03/04 01:23:24;;;;;;;21.70;14.40;;;;;;;0.35;63.67;96974.44;109759;1250;68780;-63
2022/03/04 01:25:56;;;;;;;23.80;16.20;;;;;;;0.35;63.72;96972.05;109770;1249;68624;-60
2022/03/04 01:28:26;;;;;;;22.30;15.10;;;;;;;0.33;64.10;96966.98;109914;1250;60494;-60
2022/03/04 01:30:56;;;;;;;18.70;12.60;;;;;;;0.33;63.48;96963.41;109772;1250;60516;-60
2022/03/04 01:33:27;;;;;;;19.30;12.70;;;;;;;0.33;62.92;96968.17;109815;1250;71341;-62
2022/03/04 01:35:56;;;;;;;17.10;11.50;;;;;;;0.34;62.68;96964.73;109871;1250;68638;-62
2022/03/04 01:38:26;;;;;;;11.80;8.10;;;;;;;0.35;62.53;96965.03;109959;1250;69229;-61
2022/03/04 01:40:57;;;;;;;18.60;12.10;;;;;;;0.36;61.93;96968.23;109702;1250;60481;-62
2022/03/04 01:43:27;;;;;;;19.00;12.60;;;;;;;0.36;62.29;96970.10;109750;1250;60972;-61
2022/03/04 01:46:12;;;;;;;21.70;14.10;;;;;;;0.35;63.03;96969.48;109786;1250;72368;-61
2022/03/04 01:48:44;;;;;;;18.70;12.90;;;;;;;0.33;62.95;96968.17;109960;1250;67197;-61
2022/03/04 01:51:14;;;;;;;20.70;14.40;;;;;;;0.33;62.57;96964.23;109634;1250;69921;-61
2022/03/04 01:53:44;;;;;;;;;;;;;;;0.31;62.81;96962.92;109758;1250;60492;-63
2022/03/04 01:56:15;;;;;;;17.30;11.90;;;;;;;0.30;62.98;96960.42;109776;1250;60395;-61
2022/03/04 01:58:45;;;;;;;16.80;12.50;;;;;;;0.29;63.20;96960.11;109804;1250;72392;-63
2022/03/04 02:01:15;;;;;;;18.90;12.20;;;;;;;0.26;63.56;96962.42;109783;1250;67623;-60
2022/03/04 02:03:45;;;;;;;16.80;12.20;;;;;;;0.23;63.47;96957.76;109766;1250;69247;-64
2022/03/04 02:06:16;;;;;;;15.00;11.00;;;;;;;0.21;62.94;96954.92;109844;1250;60570;-60
2022/03/04 02:08:45;;;;;;;15.80;11.40;;;;;;;0.21;63.71;96955.10;109767;1250;60476;-60
2022/03/04 02:11:15;;;;;;;15.50;9.90;;;;;;;0.19;63.15;96955.69;109727;1250;71614;-62
2022/03/04 02:13:45;;;;;;;;;;;;;;;0.20;62.73;96953.78;109737;1250;66995;-61
2022/03/04 02:16:37;;;;;;;21.00;13.50;;;;;;;0.18;63.53;96953.84;109758;1250;69770;-60
2022/03/04 02:19:07;;;;;;;34.40;22.20;;;;;;;0.16;64.47;96957.17;109732;1250;60563;-61
2022/03/04 02:21:41;;;;;;;26.30;16.60;;;;;;;0.14;64.36;96951.60;109784;1249;60439;-61
2022/03/04 02:24:11;;;;;;;20.00;15.20;;;;;;;0.13;63.62;96948.21;109721;1250;72681;-61
2022/03/04 02:26:41;;;;;;;25.30;16.50;;;;;;;0.12;63.81;96947.05;110030;1249;68355;-60
2022/03/04 02:29:12;;;;;;;19.30;12.60;;;;;;;0.11;63.38;96945.38;109844;1250;68760;-62
2022/03/04 02:31:42;;;;;;;30.70;19.20;;;;;;;0.09;65.75;96943.58;109861;1249;60491;-63
2022/03/04 02:34:12;;;;;;;19.80;13.40;;;;;;;0.07;65.89;96943.49;109569;1250;60522;-64
2022/03/04 02:36:42;;;;;;;22.60;15.00;;;;;;;0.07;64.38;96944.02;109663;1252;71456;-64
2022/03/04 02:39:13;;;;;;;39.80;23.80;;;;;;;-0.00;67.27;96947.70;109777;1250;67806;-63
2022/03/04 02:41:44;;;;;;;30.50;18.70;;;;;;;-0.10;69.57;96948.40;109706;1249;69276;-60
2022/03/04 02:44:15;;;;;;;39.90;25.20;;;;;;;-0.11;67.57;96946.91;109284;1250;717166;-62
2022/03/04 02:46:45;;;;;;;33.40;22.60;;;;;;;-0.15;68.92;96952.71;109542;1250;60878;-62
2022/03/04 02:49:15;;;;;;;41.90;25.10;;;;;;;-0.20;69.48;96954.10;109879;1250;71491;-61
2022/03/04 02:51:45;;;;;;;38.10;25.20;;;;;;;-0.27;70.87;96951.98;110029;1250;68492;-62
2022/03/04 02:54:15;;;;;;;35.40;21.40;;;;;;;-0.33;70.12;96949.59;109902;1250;68465;-64
2022/03/04 02:56:45;;;;;;;;;;;;;;;-0.32;68.16;96949.40;109879;1250;60584;-61
2022/03/04 02:59:15;;;;;;;21.20;14.90;;;;;;;-0.33;67.35;96947.36;109876;1250;60504;-64
2022/03/04 03:01:46;;;;;;;28.40;17.20;;;;;;;-0.33;66.69;96943.95;109998;1249;71415;-63
2022/03/04 03:04:18;;;;;;;20.00;10.50;;;;;;;-0.34;66.85;96948.09;109798;1250;68704;-63
2022/03/04 03:06:48;;;;;;;29.00;18.40;;;;;;;-0.34;65.92;96948.10;109826;1250;68633;-60
2022/03/04 03:09:18;;;;;;;23.20;13.70;;;;;;;-0.36;65.83;96947.48;109849;1250;60911;-62
2022/03/04 03:11:48;;;;;;;23.70;14.70;;;;;;;-0.36;65.85;96948.02;109734;1250;60480;-62
2022/03/04 03:14:18;;;;;;;25.90;15.40;;;;;;;-0.37;65.96;96945.48;109865;1250;72840;-63
2022/03/04 03:16:48;;;;;;;28.70;17.60;;;;;;;-0.38;65.76;96946.89;109946;1250;67990;-61
2022/03/04 03:19:18;;;;;;;;;;;;;;;-0.39;66.62;96948.10;109866;1250;68619;-61
2022/03/04 03:21:48;;;;;;;37.80;22.30;;;;;;;-0.42;67.17;96949.59;109778;1250;60551;-61
2022/03/04 03:24:18;;;;;;;31.10;19.70;;;;;;;-0.49;68.34;96951.73;109864;1250;60493;-61
2022/03/04 03:26:47;;;;;;;28.30;16.90;;;;;;;-0.54;67.48;96948.65;109827;1250;72451;-64
2022/03/04 03:29:17;;;;;;;30.90;19.30;;;;;;;-0.56;66.75;96952.84;109963;1250;68593;-62
2022/03/04 03:31:47;;;;;;;28.80;19.50;;;;;;;-0.60;68.27;96951.95;109874;1250;68618;-63
2022/03/04 03:34:16;;;;;;;21.30;15.10;;;;;;;-0.63;67.77;96961.28;109659;1250;60587;-62
2022/03/04 03:36:46;;;;;;;22.90;15.40;;;;;;;-0.66;67.41;96964.33;109859;1250;60506;-62
2022/03/04 03:39:17;;;;;;;20.00;12.50;;;;;;;-0.69;66.87;96967.34;109600;1250;71505;-61
2022/03/04 03:41:47;;;;;;;22.00;15.70;;;;;;;-0.71;66.26;96965.36;109845;1250;66723;-62
2022/03/04 03:44:17;;;;;;;36.50;21.80;;;;;;;-0.76;68.22;96963.81;109869;1250;69381;-61
2022/03/04 03:46:47;;;;;;;36.80;20.70;;;;;;;-0.86;70.41;96960.73;109888;1250;60905;-61
2022/03/04 03:49:18;;;;;;;30.40;19.80;;;;;;;-0.92;70.36;96959.91;109628;1252;60488;-61
2022/03/04 03:51:48;;;;;;;26.50;16.10;;;;;;;-0.96;70.06;96963.83;109723;1250;72396;-60
2022/03/04 03:54:18;;;;;;;32.00;20.00;;;;;;;-0.99;70.62;96967.69;109807;1250;67663;-61
2022/03/04 03:56:48;;;;;;;26.00;17.30;;;;;;;-1.05;71.04;96967.19;109587;1250;69647;-58
2022/03/04 03:59:18;;;;;;;29.20;17.60;;;;;;;-1.10;71.26;96965.48;109673;1250;60509;-61
2022/03/04 04:01:48;;;;;;;29.60;19.00;;;;;;;-1.13;71.33;96966.42;109799;1250;60502;-61
2022/03/04 04:04:17;;;;;;;21.00;14.60;;;;;;;-1.15;70.89;96964.11;109730;1250;72201;-61
2022/03/04 04:06:47;;;;;;;25.20;14.70;;;;;;;-1.13;69.32;96964.89;109581;1251;67899;-63
2022/03/04 04:09:17;;;;;;;31.30;17.70;;;;;;;-1.09;68.46;96963.58;109661;1250;70160;-61
2022/03/04 04:11:46;;;;;;;25.70;16.20;;;;;;;-1.06;68.76;96962.95;109967;1250;60463;-61
2022/03/04 04:14:16;;;;;;;26.70;14.70;;;;;;;-1.06;68.96;96964.34;109643;1251;60573;-60
2022/03/04 04:16:45;;;;;;;29.60;16.20;;;;;;;-1.08;69.00;96964.23;109691;1251;72230;-61
2022/03/04 04:19:15;;;;;;;31.20;20.50;;;;;;;-1.09;68.34;96966.14;109864;1249;67661;-61
2022/03/04 04:21:45;;;;;;;22.00;14.90;;;;;;;-1.12;69.96;96966.92;109761;1251;70147;-61
2022/03/04 04:24:15;;;;;;;30.60;19.10;;;;;;;-1.14;68.72;96966.65;109717;1252;60491;-61
2022/03/04 04:26:45;;;;;;;24.50;16.10;;;;;;;-1.17;69.37;96966.41;109781;1250;60517;-62
2022/03/04 04:29:15;;;;;;;23.40;16.40;;;;;;;-1.20;68.81;96968.73;109827;1250;71662;-63
2022/03/04 04:31:44;;;;;;;19.70;14.20;;;;;;;-1.22;68.90;96967.77;109602;1253;68402;-62
2022/03/04 04:34:16;;;;;;;16.80;10.70;;;;;;;-1.24;68.28;96966.97;109795;1250;68965;-61
2022/03/04 04:36:46;;;;;;;27.30;17.70;;;;;;;-1.26;68.09;96974.90;109810;1250;60565;-60
2022/03/04 04:39:15;;;;;;;19.60;14.80;;;;;;;-1.29;68.81;96974.33;109749;1250;60438;-60
2022/03/04 04:41:44;;;;;;;35.40;21.00;;;;;;;-1.34;68.33;96977.39;109609;1252;72344;-63
2022/03/04 04:44:14;;;;;;;20.40;15.00;;;;;;;-1.39;69.87;96979.26;109591;1250;67791;-62
2022/03/04 04:46:44;;;;;;;37.20;21.80;;;;;;;-1.42;69.24;96980.73;109616;1251;69461;-63
2022/03/04 04:49:14;;;;;;;22.30;14.60;;;;;;;-1.47;69.91;96982.95;109580;1251;60545;-62
2022/03/04 04:51:43;;;;;;;20.10;13.50;;;;;;;-1.49;68.94;96980.29;109787;1250;60551;-66
2022/03/04 04:54:13;;;;;;;18.30;13.00;;;;;;;-1.52;68.44;96979.53;109613;1253;71477;-64
2022/03/04 04:56:42;;;;;;;22.20;14.70;;;;;;;-1.55;69.02;96981.81;109746;1250;68365;-65
2022/03/04 04:59:12;;;;;;;29.80;19.90;;;;;;;-1.57;69.16;96986.48;109861;1250;68861;-63
2022/03/04 05:01:43;;;;;;;28.40;18.50;;;;;;;-1.62;73.15;96986.65;109770;1250;60992;-61
2022/03/04 05:04:12;;;;;;;32.00;20.60;;;;;;;-1.65;73.84;96984.19;109845;1250;60494;-63
2022/03/04 05:06:42;;;;;;;33.50;20.60;;;;;;;-1.69;74.53;96984.47;109614;1253;72464;-64
2022/03/04 05:09:11;;;;;;;30.50;20.00;;;;;;;-1.69;74.52;96988.77;109743;1250;68043;-62
2022/03/04 05:11:41;;;;;;;29.70;19.10;;;;;;;-1.66;73.52;96990.73;109719;1251;69462;-62
2022/03/04 05:14:11;;;;;;;27.60;16.80;;;;;;;-1.64;73.36;96993.37;109768;1251;60486;-61
2022/03/04 05:16:40;;;;;;;30.90;19.00;;;;;;;-1.57;71.51;96996.60;109752;1251;60521;-61
2022/03/04 05:19:10;;;;;;;34.10;21.20;;;;;;;-1.52;72.62;97001.73;109748;1250;73219;-61
2022/03/04 05:21:39;;;;;;;29.90;18.10;;;;;;;-1.47;73.54;97004.81;109880;1250;68442;-61
2022/03/04 05:24:09;;;;;;;30.00;19.40;;;;;;;-1.41;72.50;97007.00;109700;1250;68641;-60
2022/03/04 05:26:42;;;;;;;21.30;12.50;;;;;;;-1.33;71.67;97009.48;109715;1251;60518;-61
2022/03/04 05:29:13;;;;;;;27.30;16.10;;;;;;;-1.23;70.00;97014.98;109729;1250;60513;-63
2022/03/04 05:31:43;;;;;;;33.80;17.60;;;;;;;-1.15;70.10;97016.63;109721;1250;71715;-62
2022/03/04 05:34:12;;;;;;;32.80;20.80;;;;;;;-1.09;70.21;97018.48;109602;1251;68636;-63
2022/03/04 05:36:42;;;;;;;31.70;20.10;;;;;;;-1.05;70.05;97017.65;109680;1250;68670;-60
2022/03/04 05:39:11;;;;;;;31.50;18.30;;;;;;;-1.04;70.30;97013.00;109780;1249;60484;-64
2022/03/04 05:41:41;;;;;;;24.00;16.20;;;;;;;-1.00;70.37;97018.20;109720;1250;60577;-61
2022/03/04 05:44:11;;;;;;;26.70;17.70;;;;;;;-0.95;69.56;97017.86;109612;1251;71396;-60
2022/03/04 05:46:41;;;;;;;38.90;22.50;;;;;;;-0.89;69.24;97018.34;109649;1253;67045;-61
2022/03/04 05:49:11;;;;;;;;;;;;;;;-0.87;69.98;97021.17;109725;1251;69433;-62
2022/03/04 05:51:41;;;;;;;33.90;22.10;;;;;;;-0.86;71.13;97022.35;109665;1250;60886;-60
2022/03/04 05:54:12;;;;;;;27.30;17.40;;;;;;;-0.83;70.23;97023.75;109758;1250;60437;-63
2022/03/04 05:56:42;;;;;;;26.30;17.20;;;;;;;-0.79;70.98;97027.05;109680;1251;71403;-63
2022/03/04 05:59:11;;;;;;;42.90;24.30;;;;;;;-0.76;71.69;97029.86;109817;1251;67970;-61
2022/03/04 06:01:41;;;;;;;39.70;23.20;;;;;;;-0.74;72.08;97030.48;109804;1251;68634;-62
2022/03/04 06:04:10;;;;;;;33.20;22.60;;;;;;;-0.70;71.61;97033.27;109622;1253;60558;-63
2022/03/04 06:06:40;;;;;;;23.60;15.80;;;;;;;-0.65;70.69;97032.91;109780;1250;60426;-61
2022/03/04 06:09:09;;;;;;;23.80;16.30;;;;;;;-0.59;69.94;97034.60;109672;1251;71802;-63
2022/03/04 06:11:38;;;;;;;29.30;19.70;;;;;;;-0.55;69.78;97035.63;109816;1250;67839;-62
2022/03/04 06:14:08;;;;;;;28.00;17.70;;;;;;;-0.48;69.61;97037.81;109622;1251;69491;-61
2022/03/04 06:16:37;;;;;;;45.10;29.40;;;;;;;-0.40;69.27;97041.48;109728;1250;60590;-61
2022/03/04 06:19:08;;;;;;;43.20;29.60;;;;;;;-0.35;70.13;97042.14;109691;1250;60536;-63
2022/03/04 06:21:38;;;;;;;31.90;20.10;;;;;;;-0.27;70.06;97039.30;109712;1251;71505;-64
2022/03/04 06:24:07;;;;;;;41.90;26.00;;;;;;;-0.18;68.88;97043.77;109737;1251;68621;-61
2022/03/04 06:26:36;;;;;;;42.50;25.70;;;;;;;-0.11;69.13;97046.27;109673;1251;69457;-63
2022/03/04 06:29:05;;;;;;;35.90;24.10;;;;;;;-0.04;69.77;97041.22;109759;1250;60489;-62
2022/03/04 06:31:34;;;;;;;47.20;28.90;;;;;;;0.05;69.22;97039.19;109922;1250;60503;-61
2022/03/04 06:34:04;;;;;;;38.40;24.20;;;;;;;0.10;69.98;97040.68;109903;1250;71569;-60
2022/03/04 06:36:33;;;;;;;36.60;23.60;;;;;;;0.17;69.28;97037.17;109678;1250;68636;-62
2022/03/04 06:39:03;;;;;;;29.90;19.30;;;;;;;0.27;69.11;97037.84;109832;1251;69414;-61
2022/03/04 06:41:32;;;;;;;26.30;17.80;;;;;;;0.37;68.64;97041.20;109838;1251;60506;-64
2022/03/04 06:44:02;;;;;;;21.60;13.20;;;;;;;0.49;68.01;97040.42;109798;1249;60555;-64
2022/03/04 06:46:31;;;;;;;25.20;15.50;;;;;;;0.61;67.78;97046.47;109927;1250;72351;-64
2022/03/04 06:49:00;;;;;;;22.10;14.20;;;;;;;0.71;67.67;97045.55;109896;1250;68624;-63
2022/03/04 06:51:30;;;;;;;30.40;20.10;;;;;;;0.81;67.69;97052.05;109725;1251;68721;-62
2022/03/04 06:54:00;;;;;;;23.20;15.00;;;;;;;0.89;67.59;97050.17;109861;1248;60537;-64
2022/03/04 06:56:29;;;;;;;34.50;23.70;;;;;;;1.00;67.12;97052.48;109727;1251;60518;-62
2022/03/04 06:58:59;;;;;;;33.40;20.10;;;;;;;1.05;67.52;97055.35;109550;1253;72445;-64
2022/03/04 07:01:29;;;;;;;32.20;21.30;;;;;;;1.06;68.01;97056.39;110002;1248;68639;-64
2022/03/04 07:03:58;;;;;;;35.50;23.30;;;;;;;1.11;67.85;97058.03;109772;1251;69883;-58
2022/03/04 07:06:28;;;;;;;35.80;24.30;;;;;;;1.18;67.83;97054.81;109878;1250;60537;-61
2022/03/04 07:08:57;;;;;;;43.80;27.00;;;;;;;1.27;67.63;97054.10;109923;1250;60532;-63
2022/03/04 07:11:30;;;;;;;30.10;20.40;;;;;;;1.37;68.21;97055.92;109696;1251;71612;-64
2022/03/04 07:14:00;;;;;;;29.90;19.90;;;;;;;1.53;67.63;97061.45;109791;1251;68672;-63
2022/03/04 07:16:30;;;;;;;43.80;25.90;;;;;;;1.71;67.03;97063.09;109926;1250;68641;-66
2022/03/04 07:18:59;;;;;;;34.20;21.90;;;;;;;1.85;67.50;97066.97;109964;1250;60565;-63
2022/03/04 07:21:28;;;;;;;30.20;18.70;;;;;;;1.89;68.09;97069.20;109982;1249;60459;-62
2022/03/04 07:23:58;;;;;;;37.10;24.20;;;;;;;2.04;67.61;97066.27;109801;1251;71357;-65
2022/03/04 07:26:27;;;;;;;36.60;21.70;;;;;;;2.22;67.59;97067.87;109956;1250;67911;-65
2022/03/04 07:28:56;;;;;;;30.00;19.60;;;;;;;2.29;67.59;97066.89;109849;1250;69818;-64
2022/03/04 07:31:25;;;;;;;27.20;18.50;;;;;;;2.36;67.97;97071.90;109858;1250;60498;-64
2022/03/04 07:33:55;;;;;;;31.70;21.00;;;;;;;2.52;67.30;97070.48;109926;1251;60581;-64
2022/03/04 07:36:26;;;;;;;25.20;15.70;;;;;;;2.62;67.23;97072.27;109821;1251;72445;-59
2022/03/04 07:38:57;;;;;;;26.60;17.60;;;;;;;2.79;66.67;97072.14;109765;1251;68621;-62
2022/03/04 07:41:26;;;;;;;27.70;18.20;;;;;;;2.88;67.06;97073.63;109686;1251;69542;-63
2022/03/04 07:43:55;;;;;;;26.30;15.40;;;;;;;2.97;66.64;97077.99;109920;1249;60534;-64
2022/03/04 07:46:25;;;;;;;21.00;13.00;;;;;;;3.14;67.10;97081.85;109760;1251;60446;-63
2022/03/04 07:48:54;;;;;;;20.30;11.50;;;;;;;3.35;66.40;97086.16;109800;1251;72356;-63
2022/03/04 07:51:24;;;;;;;26.40;16.50;;;;;;;3.48;66.16;97085.35;109718;1251;68939;-62
2022/03/04 07:53:58;;;;;;;24.60;17.30;;;;;;;3.46;65.92;97085.79;109929;1250;69425;-61
2022/03/04 07:56:35;;;;;;;21.10;14.30;;;;;;;3.51;65.95;97089.16;109934;1250;60553;-61
2022/03/04 07:59:08;;;;;;;22.50;15.40;;;;;;;3.84;64.52;97089.76;109802;1251;60519;-63
2022/03/04 08:01:40;;;;;;;22.30;13.80;;;;;;;3.96;64.45;97089.80;109777;1251;72374;-64
2022/03/04 08:04:17;;;;;;;23.20;15.80;;;;;;;4.19;64.08;97083.13;109863;1250;68594;-63
2022/03/04 08:06:51;;;;;;;17.10;11.90;;;;;;;4.31;63.24;97082.48;109779;1251;67897;-63
2022/03/04 08:09:20;;;;;;;27.10;18.60;;;;;;;4.58;62.92;97082.23;109704;1250;60517;-61
2022/03/04 08:11:50;;;;;;;20.90;13.70;;;;;;;4.65;62.77;97080.45;109784;1250;60506;-62
2022/03/04 08:14:19;;;;;;;18.90;12.70;;;;;;;4.93;61.41;97081.91;109774;1250;71535;-60
2022/03/04 08:16:49;;;;;;;20.00;13.90;;;;;;;4.82;61.37;97084.41;109633;1251;67928;-62
2022/03/04 08:19:19;;;;;;;24.20;16.80;;;;;;;4.86;61.88;97084.20;109768;1250;69524;-62
2022/03/04 08:21:50;;;;;;;23.60;16.30;;;;;;;4.57;61.85;97086.91;109747;1251;60567;-61
2022/03/04 08:24:39;;;;;;;24.60;18.20;;;;;;;4.55;61.67;97087.89;109703;1251;60491;-60
2022/03/04 08:27:09;;;;;;;24.10;16.90;;;;;;;4.57;62.24;97089.34;109831;1250;73048;-60
2022/03/04 08:29:38;;;;;;;25.20;18.70;;;;;;;4.36;62.86;97087.72;109689;1251;69258;-61
2022/03/04 08:32:07;;;;;;;22.90;16.30;;;;;;;4.23;63.28;97082.58;109830;1251;69476;-63
2022/03/04 08:34:37;;;;;;;20.80;16.00;;;;;;;4.52;62.99;97081.85;109701;1251;60563;-62
2022/03/04 08:37:06;;;;;;;27.30;18.10;;;;;;;4.78;62.69;97078.23;109912;1251;60584;-62
2022/03/04 08:39:36;;;;;;;24.70;17.00;;;;;;;4.91;61.63;97077.82;109655;1251;71572;-63
2022/03/04 08:42:08;;;;;;;21.10;14.30;;;;;;;5.22;61.57;97077.16;109736;1251;67642;-63
2022/03/04 08:44:37;;;;;;;25.10;16.00;;;;;;;5.44;59.91;97081.95;109752;1252;68010;-62
2022/03/04 08:47:07;;;;;;;29.50;19.10;;;;;;;5.64;60.03;97082.66;109694;1253;60571;-64
2022/03/04 08:49:36;;;;;;;22.90;16.70;;;;;;;5.88;59.00;97081.83;109699;1251;60429;-65
2022/03/04 08:52:06;;;;;;;22.40;15.30;;;;;;;6.02;57.25;97079.95;109687;1251;70588;-63
2022/03/04 08:54:35;;;;;;;23.90;17.80;;;;;;;6.32;57.80;97076.92;109810;1251;68268;-61
2022/03/04 08:57:05;;;;;;;24.50;17.50;;;;;;;6.52;55.74;97079.90;109775;1251;70085;-63
2022/03/04 08:59:34;;;;;;;19.00;13.70;;;;;;;6.78;56.66;97078.59;109676;1251;60493;-62
2022/03/04 09:02:04;;;;;;;23.60;17.70;;;;;;;7.21;55.72;97084.84;109787;1251;60471;-63
2022/03/04 09:04:33;;;;;;;20.60;15.80;;;;;;;7.03;52.89;97080.84;109802;1250;72128;-65
2022/03/04 09:07:06;;;;;;;19.50;13.50;;;;;;;7.23;53.59;97084.02;109817;1251;67690;-65
2022/03/04 09:09:35;;;;;;;22.30;16.10;;;;;;;6.94;52.33;97084.86;109804;1251;69373;-64
2022/03/04 09:12:07;;;;;;;20.20;15.20;;;;;;;6.77;53.14;97089.55;109749;1252;60561;-63
2022/03/04 09:14:36;;;;;;;17.10;12.40;;;;;;;6.69;54.90;97092.33;109867;1251;60545;-63
2022/03/04 09:17:06;;;;;;;24.40;14.60;;;;;;;6.68;54.75;97097.04;109773;1251;71563;-63
2022/03/04 09:19:35;;;;;;;18.00;12.90;;;;;;;6.73;54.65;97095.22;109663;1251;68662;-63
2022/03/04 09:22:24;;;;;;;18.60;13.00;;;;;;;6.66;54.86;97097.73;109803;1250;70158;-63
2022/03/04 09:24:53;;;;;;;18.70;14.00;;;;;;;6.54;55.24;97093.76;109679;1251;60537;-64
2022/03/04 09:27:23;;;;;;;;;;;;;;;6.48;56.01;97095.16;109875;1250;60447;-65
2022/03/04 09:29:52;;;;;;;18.80;14.50;;;;;;;6.32;56.44;97098.55;109883;1250;71769;-63
2022/03/04 09:32:23;;;;;;;22.90;16.50;;;;;;;6.21;56.73;97099.40;109846;1249;68656;-65
2022/03/04 09:34:52;;;;;;;20.10;14.70;;;;;;;6.13;57.05;97099.88;109714;1251;69522;-63
2022/03/04 09:37:21;;;;;;;18.60;11.90;;;;;;;6.09;57.23;97100.67;109619;1251;60440;-62
2022/03/04 09:39:50;;;;;;;16.60;12.10;;;;;;;6.11;57.35;97096.69;109872;1251;60498;-64
2022/03/04 09:42:21;;;;;;;25.30;18.70;;;;;;;6.11;57.46;97099.13;109744;1251;72142;-63
2022/03/04 09:44:50;;;;;;;23.20;18.50;;;;;;;5.98;57.02;97096.63;110070;1250;67824;-64
2022/03/04 09:47:21;;;;;;;19.50;15.10;;;;;;;5.94;57.89;97096.34;109931;1250;70147;-63
2022/03/04 09:49:53;;;;;;;21.30;14.70;;;;;;;5.86;58.05;97094.89;109948;1250;60425;-63
2022/03/04 09:52:22;;;;;;;22.20;15.00;;;;;;;5.83;58.01;97093.83;110027;1249;60529;-66
2022/03/04 09:54:53;;;;;;;24.20;15.40;;;;;;;5.92;58.34;97099.24;110006;1250;72342;-64
2022/03/04 09:57:24;;;;;;;23.10;16.10;;;;;;;6.09;58.32;97096.13;109777;1250;67888;-65
2022/03/04 09:59:53;;;;;;;19.60;14.60;;;;;;;6.36;58.19;97092.29;109714;1251;69550;-64
2022/03/04 10:02:25;;;;;;;29.40;20.70;;;;;;;6.45;56.46;97096.92;110002;1250;60554;-62
2022/03/04 10:05:02;;;;;;;24.80;17.10;;;;;;;5.77;57.12;97096.63;109637;1251;59952;-61
2022/03/04 10:07:49;;;;;;;29.40;20.90;;;;;;;5.92;57.39;97092.66;109669;1251;72390;-62
2022/03/04 10:10:22;;;;;;;24.30;17.00;;;;;;;5.85;58.35;97090.27;109838;1251;67670;-62
2022/03/04 10:12:54;;;;;;;20.70;15.50;;;;;;;6.41;57.54;97086.77;109751;1251;69737;-62
2022/03/04 10:15:25;;;;;;;21.60;16.70;;;;;;;6.86;56.94;97083.48;109730;1251;60608;-62
2022/03/04 10:18:05;;;;;;;29.10;20.20;;;;;;;7.07;55.58;97082.67;109964;1250;60562;-61
2022/03/04 10:20:40;;;;;;;27.90;18.50;;;;;;;7.04;54.89;97080.92;110087;1250;72506;-65
2022/03/04 10:23:18;;;;;;;28.10;21.00;;;;;;;6.77;54.49;97077.59;109986;1250;67859;-61
2022/03/04 10:25:51;;;;;;;27.30;18.30;;;;;;;6.41;55.70;97077.42;109924;1250;68433;-62
2022/03/04 10:28:26;;;;;;;27.50;20.10;;;;;;;6.96;54.99;97072.44;109680;1250;60516;-62
2022/03/04 10:30:57;;;;;;;24.70;18.20;;;;;;;7.34;54.97;97075.86;110071;1250;60502;-63
2022/03/04 10:33:46;;;;;;;;;;;;;;;7.34;53.64;97072.07;110008;1250;72179;-62
2022/03/04 10:36:16;;;;;;;34.60;23.90;;;;;;;7.26;52.76;97071.20;110082;1250;68618;-63
2022/03/04 10:39:08;;;;;;;25.30;19.00;;;;;;;7.01;53.66;97068.64;110050;1250;69818;-64
2022/03/04 10:41:49;;;;;;;22.80;17.50;;;;;;;7.61;53.01;97065.08;109723;1250;60563;-63
2022/03/04 10:44:29;;;;;;;22.30;15.60;;;;;;;8.06;52.32;97066.03;109819;1250;60546;-65
2022/03/04 10:46:58;;;;;;;28.10;20.80;;;;;;;8.47;50.21;97060.48;109799;1250;72079;-65
2022/03/04 10:49:30;;;;;;;29.10;21.70;;;;;;;8.34;49.84;97059.61;109812;1250;68520;-64
2022/03/04 10:52:09;;;;;;;28.10;21.10;;;;;;;7.90;49.92;97057.61;109726;1250;69483;-63
2022/03/04 10:54:38;;;;;;;23.40;16.90;;;;;;;7.42;50.50;97057.33;109854;1250;60563;-63
2022/03/04 10:57:07;;;;;;;21.50;18.10;;;;;;;7.61;50.01;97055.52;109657;1251;60529;-64
2022/03/04 10:59:55;;;;;;;20.50;16.20;;;;;;;7.05;50.90;97051.94;109855;1250;73076;-64
2022/03/04 11:02:44;;;;;;;23.40;17.30;;;;;;;7.64;50.25;97053.08;109719;1250;68626;-65
2022/03/04 11:05:14;;;;;;;23.20;16.00;;;;;;;7.13;50.15;97046.90;109841;1250;68728;-66
2022/03/04 11:07:43;;;;;;;24.10;17.40;;;;;;;7.48;49.29;97046.52;110049;1250;60567;-67
2022/03/04 11:10:13;;;;;;;25.30;18.70;;;;;;;6.98;49.89;97043.71;110034;1249;60542;-64
2022/03/04 11:12:42;;;;;;;22.80;17.00;;;;;;;6.87;51.07;97041.29;110015;1249;72613;-64
2022/03/04 11:15:13;;;;;;;20.80;16.30;;;;;;;7.63;50.30;97040.15;109792;1250;67630;-65
2022/03/04 11:17:44;;;;;;;19.50;14.00;;;;;;;8.04;49.17;97039.80;109659;1251;69899;-65
2022/03/04 11:20:14;;;;;;;19.90;15.50;;;;;;;8.55;49.26;97037.02;110004;1250;60539;-64
2022/03/04 11:22:44;;;;;;;;;;;;;;;9.13;48.18;97035.98;109816;1249;60552;-64
2022/03/04 11:25:15;;;;;;;26.80;17.40;;;;;;;9.54;47.20;97035.02;109964;1249;72724;-64
2022/03/04 11:27:52;;;;;;;18.40;14.30;;;;;;;9.90;47.28;97031.07;109840;1250;68624;-61
2022/03/04 11:30:46;;;;;;;17.50;14.10;;;;;;;10.16;46.89;97029.48;109738;1251;67898;-62
2022/03/04 11:33:26;;;;;;;20.70;16.50;;;;;;;10.21;43.80;97025.95;109704;1250;60495;-68